createdAt,value
2022-08-23T00:00:51.809Z,71.05
2022-08-23T00:05:54.241Z,72.09
2022-08-23T00:10:55.515Z,71.39
2022-08-23T00:15:56.785Z,70.83
2022-08-23T00:20:58.024Z,70.33
2022-08-23T00:25:59.570Z,71.42
2022-08-23T00:31:00.839Z,71.34
2022-08-23T00:36:02.119Z,70.92
2022-08-23T00:41:03.410Z,71.27
2022-08-23T00:46:23.514Z,72.80
2022-08-23T00:51:24.797Z,73.63
2022-08-23T00:56:26.067Z,72.56
2022-08-23T01:01:29.152Z,72.28
2022-08-23T01:06:30.455Z,71.72
2022-08-23T01:11:33.177Z,71.80
2022-08-23T01:16:34.563Z,71.84
2022-08-23T01:21:36.579Z,71.17
2022-08-23T01:26:42.510Z,71.79
2022-08-23T01:31:43.755Z,72.09
2022-08-23T01:36:45.022Z,71.82
2022-08-23T01:41:46.278Z,71.71
2022-08-23T01:46:47.576Z,71.39
2022-08-23T01:51:48.842Z,72.76
2022-08-23T01:56:50.117Z,71.93
2022-08-23T02:01:51.422Z,72.17
2022-08-23T02:06:52.738Z,71.25
2022-08-23T02:11:54.789Z,72.24
2022-08-23T02:17:03.983Z,71.58
2022-08-23T02:22:06.014Z,71.88
2022-08-23T02:27:07.260Z,71.78
2022-08-23T02:32:09.703Z,71.06
2022-08-23T02:37:11.141Z,73.73
2022-08-23T02:42:12.401Z,70.01
2022-08-23T02:47:14.156Z,68.12
2022-08-23T02:52:15.394Z,67.44
2022-08-23T02:57:16.678Z,66.76
2022-08-23T03:02:17.966Z,65.86
2022-08-23T03:07:19.519Z,65.95
2022-08-23T03:12:20.794Z,65.28
2022-08-23T03:17:22.065Z,65.32
2022-08-23T03:22:23.397Z,65.25
2022-08-23T03:27:25.266Z,64.87
2022-08-23T03:32:26.551Z,65.34
2022-08-23T03:37:27.864Z,64.51
2022-08-23T03:42:31.247Z,64.45
2022-08-23T03:47:32.635Z,64.53
2022-08-23T03:52:33.886Z,63.91
2022-08-23T03:57:35.142Z,63.97
2022-08-23T04:02:36.454Z,64.44
2022-08-23T04:07:38.811Z,64.65
2022-08-23T04:12:40.069Z,64.88
2022-08-23T04:17:42.521Z,64.86
2022-08-23T04:22:44.618Z,64.92
2022-08-23T04:27:49.134Z,65.95
2022-08-23T04:32:50.677Z,66.54
2022-08-23T04:37:52.357Z,68.06
2022-08-23T04:42:53.645Z,69.65
2022-08-23T04:47:55.094Z,71.11
2022-08-23T04:52:56.389Z,72.73
2022-08-23T04:57:57.744Z,72.03
2022-08-23T05:02:59.042Z,74.19
2022-08-23T05:08:00.339Z,73.97
2022-08-23T05:13:01.695Z,73.19
2022-08-23T05:18:03.086Z,73.31
2022-08-23T05:23:04.427Z,72.62
2022-08-23T05:28:05.702Z,72.87
2022-08-23T05:33:07.095Z,72.68
2022-08-23T05:38:08.395Z,73.16
2022-08-23T05:43:09.646Z,72.78
2022-08-23T05:48:10.897Z,74.39
2022-08-23T05:53:12.337Z,73.88
2022-08-23T05:58:13.607Z,73.68
2022-08-23T06:03:15.021Z,72.44
2022-08-23T06:08:16.346Z,72.32
2022-08-23T06:13:17.690Z,72.06
2022-08-23T06:18:19.537Z,72.41
2022-08-23T06:23:20.785Z,72.06
2022-08-23T06:28:25.723Z,72.92
2022-08-23T06:33:27.600Z,74.59
2022-08-23T06:38:29.009Z,72.89
2022-08-23T06:43:30.490Z,67.45
2022-08-23T06:48:31.761Z,68.04
2022-08-23T06:53:33.337Z,68.90
2022-08-23T06:58:34.627Z,68.97
2022-08-23T07:03:36.536Z,68.66
2022-08-23T07:08:38.022Z,68.63
2022-08-23T07:13:39.893Z,67.67
2022-08-23T07:18:41.161Z,66.33
2022-08-23T07:23:46.444Z,65.75
2022-08-23T07:28:47.957Z,63.50
2022-08-23T07:33:49.327Z,62.13
2022-08-23T07:38:51.726Z,61.70
2022-08-23T07:43:53.069Z,60.89
2022-08-23T07:48:55.139Z,59.84
2022-08-23T07:53:56.571Z,60.67
2022-08-23T07:58:57.848Z,60.12
2022-08-23T08:03:59.133Z,58.85
2022-08-23T08:09:00.450Z,58.43
2022-08-23T08:14:01.729Z,58.68
2022-08-23T08:19:03.282Z,56.71
2022-08-23T08:24:04.890Z,56.65
2022-08-23T08:29:06.245Z,56.39
2022-08-23T08:34:07.822Z,56.00
2022-08-23T08:39:10.437Z,55.45
2022-08-23T08:44:15.786Z,53.01
2022-08-23T08:49:17.644Z,53.47
2022-08-23T08:54:18.962Z,52.93
2022-08-23T08:59:20.310Z,49.82
2022-08-23T09:04:22.544Z,51.00
2022-08-23T09:09:23.842Z,48.11
2022-08-23T09:14:25.100Z,50.34
2022-08-23T09:19:26.349Z,49.64
2022-08-23T09:24:27.691Z,48.29
2022-08-23T09:29:33.883Z,47.62
2022-08-23T09:34:36.315Z,46.89
2022-08-23T09:39:37.629Z,44.97
2022-08-23T09:44:39.276Z,43.83
2022-08-23T09:49:41.324Z,43.53
2022-08-23T09:54:46.927Z,40.89
2022-08-23T09:59:51.937Z,39.80
2022-08-23T10:04:53.276Z,37.97
2022-08-23T10:09:54.571Z,37.39
2022-08-23T10:20:32.478Z,39.15
2022-08-23T10:25:34.279Z,36.25
2022-08-23T10:30:35.552Z,34.92
2022-08-23T10:35:37.854Z,36.38
2022-08-23T10:40:39.434Z,34.07
2022-08-23T10:45:40.977Z,33.84
2022-08-23T10:50:44.640Z,35.18
2022-08-23T10:56:03.335Z,34.41
2022-08-23T11:01:04.715Z,33.71
2022-08-23T11:06:06.165Z,32.71
2022-08-23T11:11:07.456Z,31.30
2022-08-23T11:16:08.754Z,32.88
2022-08-23T11:21:10.114Z,32.27
2022-08-23T11:26:11.437Z,31.83
2022-08-23T11:31:12.803Z,30.18
2022-08-23T11:36:16.464Z,30.75
2022-08-23T11:41:17.850Z,33.74
2022-08-23T11:46:19.172Z,32.88
2022-08-23T11:51:21.125Z,31.87
2022-08-23T11:56:22.409Z,31.99
2022-08-23T12:01:23.679Z,33.87
2022-08-23T12:06:26.251Z,30.88
2022-08-23T12:11:27.518Z,30.08
2022-08-23T12:16:29.093Z,31.59
2022-08-23T12:21:30.430Z,29.29
2022-08-23T12:26:31.709Z,30.28
2022-08-23T12:31:33.521Z,31.80
2022-08-23T12:36:34.830Z,27.00
2022-08-23T12:41:37.541Z,28.99
2022-08-23T12:46:39.687Z,30.60
2022-08-23T12:51:41.080Z,31.15
2022-08-23T12:56:42.366Z,29.72
2022-08-23T13:01:43.655Z,27.73
2022-08-23T13:06:45.013Z,29.03
2022-08-23T13:11:46.437Z,28.44
2022-08-23T13:16:47.669Z,28.13
2022-08-23T13:21:52.185Z,30.57
2022-08-23T13:26:55.738Z,28.37
2022-08-23T13:32:02.575Z,27.48
2022-08-23T13:37:04.967Z,28.86
2022-08-23T13:42:06.313Z,27.09
2022-08-23T13:47:07.554Z,28.33
2022-08-23T13:52:45.488Z,27.77
2022-08-23T13:57:34.228Z,23.26
2022-08-23T14:02:50.190Z,24.57
2022-08-23T14:07:53.447Z,27.05
2022-08-23T14:12:54.822Z,28.03
2022-08-23T14:17:56.087Z,25.41
2022-08-23T14:22:57.534Z,26.04
2022-08-23T14:28:02.507Z,28.66
2022-08-23T14:33:03.993Z,26.24
2022-08-23T14:38:11.130Z,27.41
2022-08-23T14:43:12.531Z,28.19
2022-08-23T14:48:13.925Z,27.28
2022-08-23T14:53:15.229Z,27.71
2022-08-23T14:58:16.549Z,27.89
2022-08-23T15:03:18.014Z,28.69
2022-08-23T15:08:19.717Z,27.98
2022-08-23T15:13:29.810Z,29.56
2022-08-23T15:18:34.742Z,29.50
2022-08-23T15:23:36.054Z,27.44
2022-08-23T15:28:37.362Z,30.70
2022-08-23T15:33:38.721Z,30.38
2022-08-23T15:38:40.011Z,29.90
2022-08-23T15:43:42.133Z,29.46
2022-08-23T15:48:43.636Z,30.50
2022-08-23T15:53:44.987Z,28.21
2022-08-23T15:58:46.275Z,31.39
2022-08-23T16:03:48.134Z,29.66
2022-08-23T16:08:49.361Z,32.57
2022-08-23T16:13:53.670Z,33.00
2022-08-23T16:18:57.920Z,35.54
2022-08-23T16:23:59.272Z,34.60
2022-08-23T16:29:00.549Z,37.17
2022-08-23T16:34:03.812Z,37.05
2022-08-23T16:39:05.123Z,34.77
2022-08-23T16:44:06.396Z,33.43
2022-08-23T16:49:07.656Z,34.20
2022-08-23T16:54:08.957Z,36.39
2022-08-23T16:59:10.221Z,38.55
2022-08-23T17:04:12.576Z,37.69
2022-08-23T17:09:13.857Z,38.74
2022-08-23T17:14:15.247Z,39.18
2022-08-23T17:19:16.603Z,39.26
2022-08-23T17:24:18.009Z,40.58
2022-08-23T17:29:20.333Z,40.24
2022-08-23T17:34:21.742Z,41.19
2022-08-23T17:39:23.039Z,42.89
2022-08-23T17:44:24.334Z,43.29
2022-08-23T17:49:25.758Z,45.11
2022-08-23T17:54:27.010Z,46.60
2022-08-23T17:59:28.303Z,44.77
2022-08-23T18:04:29.649Z,46.52
2022-08-23T18:09:30.938Z,45.92
2022-08-23T18:14:32.211Z,47.08
2022-08-23T18:19:33.716Z,48.16
2022-08-23T18:24:35.003Z,49.59
2022-08-23T18:29:36.267Z,50.47
2022-08-23T18:34:37.551Z,52.30
2022-08-23T18:39:38.799Z,52.03
2022-08-23T18:44:40.061Z,52.29
2022-08-23T18:49:42.250Z,53.55
2022-08-23T18:54:43.647Z,54.25
2022-08-23T18:59:44.943Z,54.30
2022-08-23T19:04:46.269Z,54.77
2022-08-23T19:09:47.627Z,55.36
2022-08-23T19:14:48.974Z,55.80
2022-08-23T19:19:50.622Z,56.80
2022-08-23T19:24:51.901Z,57.47
2022-08-23T19:29:53.801Z,58.07
2022-08-23T19:34:55.061Z,58.18
2022-08-23T19:39:56.345Z,58.94
2022-08-23T19:44:57.734Z,58.40
2022-08-23T19:49:58.993Z,59.32
2022-08-23T19:55:05.260Z,61.13
2022-08-23T20:00:10.405Z,61.92
2022-08-23T20:05:11.659Z,60.82
2022-08-23T20:10:12.959Z,60.42
2022-08-23T20:15:14.463Z,62.96
2022-08-23T20:20:15.729Z,63.57
2022-08-23T20:25:17.092Z,63.31
2022-08-23T20:30:18.523Z,63.16
2022-08-23T20:35:19.819Z,62.72
2022-08-23T20:40:21.921Z,62.23
2022-08-23T20:45:23.629Z,62.92
2022-08-23T20:50:25.438Z,64.17
2022-08-23T20:55:28.218Z,65.58
2022-08-23T21:00:29.484Z,64.95
2022-08-23T21:05:30.737Z,64.04
2022-08-23T21:10:32.015Z,65.18
2022-08-23T21:15:33.301Z,65.77
2022-08-23T21:20:34.566Z,65.33
2022-08-23T21:25:35.843Z,65.57
2022-08-23T21:30:37.099Z,67.54
2022-08-23T21:35:38.372Z,67.31
2022-08-23T21:40:39.618Z,68.51
2022-08-23T21:45:41.732Z,67.49
2022-08-23T21:50:45.200Z,66.79
2022-08-23T21:55:46.571Z,67.92
2022-08-23T22:00:47.898Z,68.43
2022-08-23T22:05:49.216Z,68.58
2022-08-23T22:10:52.198Z,67.17
2022-08-23T22:16:01.368Z,66.91
2022-08-23T22:21:05.406Z,67.97
2022-08-23T22:26:09.493Z,69.47
2022-08-23T22:31:12.886Z,69.23
2022-08-23T22:36:14.225Z,68.87
2022-08-23T22:41:15.664Z,68.73
2022-08-23T22:46:16.993Z,68.49
2022-08-23T22:51:18.377Z,69.71
2022-08-23T22:56:19.985Z,68.65
2022-08-23T23:01:21.835Z,68.23
2022-08-23T23:06:23.877Z,68.68
2022-08-23T23:11:25.122Z,68.32
2022-08-23T23:16:26.445Z,68.09
2022-08-23T23:21:27.769Z,67.66
2022-08-23T23:26:29.522Z,68.04
2022-08-23T23:31:30.779Z,68.68
2022-08-23T23:36:32.089Z,68.79
2022-08-23T23:41:33.374Z,69.04
2022-08-23T23:46:35.846Z,68.75
2022-08-23T23:51:37.394Z,69.70
2022-08-23T23:56:38.846Z,70.07
